createdAt,value
2018-07-12T00:02:25.264Z,17.87
2018-07-12T00:04:51.819Z,17.47
2018-07-12T00:07:18.473Z,15.33
2018-07-12T00:09:45.048Z,17.83
2018-07-12T00:12:11.618Z,18.17
2018-07-12T00:14:38.661Z,17.67
2018-07-12T00:17:05.219Z,16.47
2018-07-12T00:19:31.775Z,16.47
2018-07-12T00:21:58.396Z,20.50
2018-07-12T00:24:24.972Z,20.00
2018-07-12T00:26:51.547Z,18.03
2018-07-12T00:29:18.711Z,17.20
2018-07-12T00:31:45.286Z,17.67
2018-07-12T00:34:11.888Z,17.90
2018-07-12T00:36:38.912Z,15.67
2018-07-12T00:39:05.489Z,18.23
2018-07-12T00:41:32.039Z,19.03
2018-07-12T00:43:58.627Z,20.83
2018-07-12T00:46:25.217Z,21.53
2018-07-12T00:48:51.799Z,18.97
2018-07-12T00:51:18.866Z,20.40
2018-07-12T00:53:45.858Z,17.70
2018-07-12T00:56:12.431Z,20.70
2018-07-12T00:58:39.020Z,20.93
2018-07-12T01:01:05.594Z,22.10
2018-07-12T01:03:32.157Z,19.37
2018-07-12T01:05:59.182Z,18.00
2018-07-12T01:08:25.752Z,21.50
2018-07-12T01:10:52.347Z,18.43
2018-07-12T01:13:18.903Z,19.77
2018-07-12T01:15:45.460Z,19.37
2018-07-12T01:18:12.064Z,16.97
2018-07-12T01:20:38.663Z,23.40
2018-07-12T01:23:05.244Z,19.20
2018-07-12T01:25:31.795Z,23.70
2018-07-12T01:27:58.387Z,19.60
2018-07-12T01:30:24.984Z,18.30
2018-07-12T01:32:51.546Z,24.53
2018-07-12T01:35:18.124Z,22.57
2018-07-12T01:37:44.687Z,21.47
2018-07-12T01:40:11.717Z,21.70
2018-07-12T01:42:38.361Z,19.30
2018-07-12T01:45:05.371Z,18.17
2018-07-12T01:47:31.963Z,20.43
2018-07-12T01:49:58.523Z,23.80
2018-07-12T01:52:25.072Z,21.13
2018-07-12T01:54:51.645Z,17.43
2018-07-12T01:57:18.188Z,21.23
2018-07-12T01:59:44.781Z,19.67
2018-07-12T02:02:11.330Z,19.70
2018-07-12T02:04:37.888Z,20.50
2018-07-12T02:07:04.470Z,19.00
2018-07-12T02:09:31.023Z,18.60
2018-07-12T02:11:57.602Z,21.97
2018-07-12T02:14:24.195Z,19.40
2018-07-12T02:16:50.750Z,17.03
2018-07-12T02:19:17.331Z,20.17
2018-07-12T02:21:43.925Z,19.33
2018-07-12T02:24:10.499Z,27.00
2018-07-12T02:26:37.066Z,24.03
2018-07-12T02:29:03.595Z,19.53
2018-07-12T02:31:30.160Z,21.37
2018-07-12T02:33:56.736Z,23.00
2018-07-12T02:36:23.320Z,22.10
2018-07-12T02:38:49.895Z,15.10
2018-07-12T02:41:16.455Z,20.70
2018-07-12T02:43:43.528Z,21.17
2018-07-12T02:46:10.088Z,21.23
2018-07-12T02:48:36.687Z,19.20
2018-07-12T02:51:03.391Z,15.97
2018-07-12T02:53:29.926Z,16.90
2018-07-12T02:55:56.461Z,20.07
2018-07-12T02:58:23.031Z,21.87
2018-07-12T03:00:50.048Z,19.23
2018-07-12T03:03:16.645Z,18.87
2018-07-12T03:05:43.203Z,22.90
2018-07-12T03:08:09.771Z,21.63
2018-07-12T03:10:36.362Z,20.70
2018-07-12T03:13:02.930Z,20.97
2018-07-12T03:15:29.523Z,22.07
2018-07-12T03:17:56.082Z,22.30
2018-07-12T03:20:22.636Z,20.13
2018-07-12T03:22:49.197Z,21.33
2018-07-12T03:25:15.807Z,24.20
2018-07-12T03:27:42.379Z,20.23
2018-07-12T03:30:08.927Z,23.20
2018-07-12T03:32:35.938Z,22.67
2018-07-12T03:35:02.511Z,23.80
2018-07-12T03:37:29.512Z,19.90
2018-07-12T03:39:56.148Z,24.63
2018-07-12T03:42:22.718Z,20.47
2018-07-12T03:44:49.271Z,23.90
2018-07-12T03:47:15.841Z,19.40
2018-07-12T03:49:42.387Z,22.83
2018-07-12T03:52:08.979Z,28.83
2018-07-12T03:54:35.550Z,23.23
2018-07-12T03:57:02.104Z,20.10
2018-07-12T03:59:28.723Z,21.63
2018-07-12T04:01:55.295Z,23.10
2018-07-12T04:04:21.874Z,20.80
2018-07-12T04:06:48.435Z,22.30
2018-07-12T04:09:14.988Z,22.93
2018-07-12T04:11:41.564Z,27.27
2018-07-12T04:14:08.565Z,18.27
2018-07-12T04:16:35.149Z,19.77
2018-07-12T04:19:02.150Z,34.13
2018-07-12T04:21:28.687Z,18.10
2018-07-12T04:23:55.262Z,18.97
2018-07-12T04:26:22.272Z,23.00
2018-07-12T04:28:48.953Z,20.93
2018-07-12T04:31:15.953Z,15.23
2018-07-12T04:33:42.498Z,18.97
2018-07-12T04:36:09.075Z,21.77
2018-07-12T04:38:35.655Z,20.83
2018-07-12T04:41:02.277Z,23.93
2018-07-12T04:43:28.835Z,20.50
2018-07-12T04:45:55.387Z,17.13
2018-07-12T04:48:21.966Z,20.83
2018-07-12T04:50:48.536Z,16.43
2018-07-12T04:53:15.144Z,18.07
2018-07-12T04:55:41.711Z,21.60
2018-07-12T04:58:08.321Z,22.30
2018-07-12T05:00:34.843Z,26.77
2018-07-12T05:03:01.911Z,20.20
2018-07-12T05:05:28.513Z,23.30
2018-07-12T05:07:55.521Z,21.17
2018-07-12T05:10:22.088Z,20.47
2018-07-12T05:12:48.664Z,23.03
2018-07-12T05:15:15.231Z,19.50
2018-07-12T05:17:41.826Z,19.50
2018-07-12T05:20:08.831Z,19.40
2018-07-12T05:22:35.403Z,16.50
2018-07-12T05:25:02.288Z,19.47
2018-07-12T05:27:28.855Z,19.57
2018-07-12T05:29:55.430Z,18.80
2018-07-12T05:32:22.063Z,16.93
2018-07-12T05:34:49.080Z,19.13
2018-07-12T05:37:16.796Z,17.40
2018-07-12T05:39:44.547Z,18.23
2018-07-12T05:42:12.272Z,22.43
2018-07-12T05:44:39.995Z,16.33
2018-07-12T05:47:07.732Z,16.33
2018-07-12T05:49:35.443Z,19.77
2018-07-12T05:52:03.214Z,16.80
2018-07-12T05:54:30.943Z,16.00
2018-07-12T05:56:58.695Z,16.07
2018-07-12T05:59:26.303Z,16.53
2018-07-12T06:02:05.434Z,15.83
2018-07-12T06:04:33.128Z,21.80
2018-07-12T06:07:00.856Z,20.20
2018-07-12T06:09:28.627Z,21.03
2018-07-12T06:11:56.347Z,19.53
2018-07-12T06:14:24.055Z,17.83
2018-07-12T06:16:51.777Z,18.20
2018-07-12T06:19:19.575Z,18.27
2018-07-12T06:21:47.335Z,19.87
2018-07-12T06:24:15.175Z,23.23
2018-07-12T06:26:42.880Z,21.33
2018-07-12T06:29:10.675Z,30.17
2018-07-12T06:31:38.270Z,30.67
2018-07-12T06:34:06.006Z,27.57
2018-07-12T06:36:33.634Z,27.10
2018-07-12T06:39:01.354Z,31.80
2018-07-12T06:41:29.088Z,42.87
2018-07-12T06:43:56.848Z,38.60
2018-07-12T06:46:24.612Z,40.50
2018-07-12T06:48:52.291Z,42.97
2018-07-12T06:51:19.934Z,40.27
2018-07-12T06:53:47.606Z,35.23
2018-07-12T06:56:15.899Z,36.37
2018-07-12T06:58:43.503Z,42.27
2018-07-12T07:01:11.212Z,38.13
2018-07-12T07:03:38.903Z,41.90
2018-07-12T07:06:06.623Z,50.63
2018-07-12T07:08:34.334Z,44.40
2018-07-12T07:11:02.071Z,37.90
2018-07-12T07:13:29.803Z,40.80
2018-07-12T07:15:57.476Z,41.80
2018-07-12T07:18:25.178Z,38.40
2018-07-12T07:20:52.907Z,44.10
2018-07-12T07:23:20.595Z,50.80
2018-07-12T07:25:48.163Z,49.37
2018-07-12T07:28:15.921Z,50.40
2018-07-12T07:30:43.484Z,42.70
2018-07-12T07:33:11.150Z,47.27
2018-07-12T07:35:38.895Z,43.40
2018-07-12T07:38:06.454Z,49.23
2018-07-12T07:40:34.232Z,44.23
2018-07-12T07:43:02.123Z,43.33
2018-07-12T07:45:29.734Z,37.77
2018-07-12T07:47:57.431Z,44.70
2018-07-12T07:50:25.436Z,43.90
2018-07-12T07:52:53.094Z,37.30
2018-07-12T07:55:20.789Z,29.27
2018-07-12T07:57:48.549Z,35.50
2018-07-12T08:00:16.219Z,35.67
2018-07-12T08:02:43.927Z,35.20
2018-07-12T08:05:11.760Z,37.63
2018-07-12T08:07:39.430Z,32.70
2018-07-12T08:10:07.018Z,39.93
2018-07-12T08:12:34.734Z,33.30
2018-07-12T08:15:02.527Z,36.43
2018-07-12T08:17:30.095Z,34.50
2018-07-12T08:19:57.678Z,36.40
2018-07-12T08:22:25.365Z,39.47
2018-07-12T08:24:53.051Z,35.43
2018-07-12T08:27:20.810Z,38.07
2018-07-12T08:29:48.516Z,41.50
2018-07-12T08:32:16.219Z,37.67
2018-07-12T08:34:43.927Z,36.13
2018-07-12T08:37:11.483Z,37.63
2018-07-12T08:39:39.066Z,37.10
2018-07-12T08:42:06.804Z,34.43
2018-07-12T08:44:34.386Z,39.03
2018-07-12T08:47:02.075Z,36.70
2018-07-12T08:49:29.771Z,36.53
2018-07-12T08:51:57.474Z,41.07
2018-07-12T08:54:25.168Z,35.87
2018-07-12T08:56:52.924Z,37.70
2018-07-12T08:59:20.608Z,37.83
2018-07-12T09:01:48.339Z,40.83
2018-07-12T09:04:16.083Z,34.90
2018-07-12T09:06:43.798Z,32.70
2018-07-12T09:09:12.261Z,33.70
2018-07-12T09:11:39.975Z,31.20
2018-07-12T09:14:07.537Z,32.70
2018-07-12T09:16:35.113Z,30.07
2018-07-12T09:19:02.847Z,27.17
2018-07-12T09:21:30.563Z,27.50
2018-07-12T09:23:58.240Z,29.03
2018-07-12T09:26:25.955Z,26.77
2018-07-12T09:28:53.556Z,28.10
2018-07-12T09:31:21.263Z,28.67
2018-07-12T09:33:49.026Z,26.37
2018-07-12T09:36:16.738Z,26.77
2018-07-12T09:38:45.632Z,28.47
2018-07-12T09:41:13.369Z,30.13
2018-07-12T09:43:42.343Z,27.60
2018-07-12T09:46:10.071Z,29.80
2018-07-12T09:48:40.422Z,29.37
2018-07-12T09:51:09.128Z,28.03
2018-07-12T09:53:36.730Z,28.93
2018-07-12T09:56:04.750Z,26.13
2018-07-12T09:58:32.396Z,27.50
2018-07-12T10:01:05.757Z,22.47
2018-07-12T10:03:39.089Z,25.63
2018-07-12T10:06:12.396Z,22.10
2018-07-12T10:08:45.827Z,18.80
2018-07-12T10:11:19.191Z,20.43
2018-07-12T10:13:52.603Z,20.47
2018-07-12T10:16:26.019Z,22.27
2018-07-12T10:18:53.715Z,21.90
2018-07-12T10:21:21.405Z,21.23
2018-07-12T10:23:49.158Z,25.57
2018-07-12T10:26:16.979Z,23.93
2018-07-12T10:28:45.067Z,22.40
2018-07-12T10:31:12.792Z,22.67
2018-07-12T10:33:40.351Z,23.17
2018-07-12T10:36:07.916Z,22.67
2018-07-12T10:38:35.627Z,24.13
2018-07-12T10:41:03.417Z,20.80
2018-07-12T10:43:31.119Z,19.83
2018-07-12T10:45:58.891Z,19.20
2018-07-12T10:48:26.583Z,21.07
2018-07-12T10:50:54.308Z,20.20
2018-07-12T10:53:22.105Z,21.37
2018-07-12T10:55:49.855Z,24.77
2018-07-12T10:58:17.592Z,21.07
2018-07-12T11:00:45.334Z,22.60
2018-07-12T11:03:13.131Z,22.17
2018-07-12T11:05:40.877Z,21.23
2018-07-12T11:08:08.704Z,23.93
2018-07-12T11:10:36.411Z,21.27
2018-07-12T11:13:11.263Z,20.77
2018-07-12T11:15:38.971Z,22.73
2018-07-12T11:18:06.819Z,22.00
2018-07-12T11:20:34.563Z,20.60
2018-07-12T11:23:02.283Z,21.50
2018-07-12T11:25:30.263Z,23.13
2018-07-12T11:27:58.124Z,22.27
2018-07-12T11:30:25.704Z,22.23
2018-07-12T11:32:53.409Z,22.20
2018-07-12T11:35:21.129Z,20.80
2018-07-12T11:37:48.827Z,21.07
2018-07-12T11:40:16.515Z,16.67
2018-07-12T11:42:44.224Z,20.63
2018-07-12T11:45:11.971Z,22.00
2018-07-12T11:47:39.558Z,20.87
2018-07-12T11:50:07.610Z,17.27
2018-07-12T11:52:35.368Z,16.40
2018-07-12T11:55:03.179Z,16.73
2018-07-12T11:57:30.891Z,16.57
2018-07-12T11:59:58.652Z,18.40
2018-07-12T12:02:26.411Z,18.93
2018-07-12T12:04:54.163Z,17.33
2018-07-12T12:07:21.887Z,18.97
2018-07-12T12:09:49.585Z,20.70
2018-07-12T12:12:17.340Z,21.00
2018-07-12T12:14:45.051Z,14.70
2018-07-12T12:17:12.765Z,20.43
2018-07-12T12:19:40.499Z,18.03
2018-07-12T12:22:08.227Z,18.50
2018-07-12T12:24:35.946Z,18.13
2018-07-12T12:27:03.744Z,17.17
2018-07-12T12:29:31.487Z,18.37
2018-07-12T12:32:00.239Z,17.77
2018-07-12T12:34:27.999Z,15.43
2018-07-12T12:36:55.733Z,13.60
2018-07-12T12:39:23.440Z,16.77
2018-07-12T12:41:51.512Z,17.30
2018-07-12T12:44:19.187Z,19.60
2018-07-12T12:46:46.885Z,16.17
2018-07-12T12:49:14.611Z,15.63
2018-07-12T12:51:42.632Z,15.53
2018-07-12T12:54:10.352Z,18.03
2018-07-12T12:56:38.159Z,15.70
2018-07-12T12:59:05.778Z,16.63
2018-07-12T13:01:33.480Z,18.60
2018-07-12T13:04:01.231Z,16.97
2018-07-12T13:06:28.939Z,17.83
2018-07-12T13:08:56.510Z,14.93
2018-07-12T13:11:24.239Z,14.63
2018-07-12T13:13:51.951Z,15.57
2018-07-12T13:16:19.708Z,15.77
2018-07-12T13:18:47.500Z,16.30
2018-07-12T13:21:15.274Z,15.03
2018-07-12T13:23:43.003Z,14.97
2018-07-12T13:26:10.823Z,14.67
2018-07-12T13:28:38.547Z,18.10
2018-07-12T13:31:06.379Z,14.33
2018-07-12T13:33:34.061Z,16.93
2018-07-12T13:36:01.824Z,15.63
2018-07-12T13:38:29.544Z,18.23
2018-07-12T13:40:57.294Z,17.40
2018-07-12T13:43:25.054Z,13.83
2018-07-12T13:45:52.755Z,13.73
2018-07-12T13:48:20.515Z,17.77
2018-07-12T13:50:48.207Z,17.60
2018-07-12T13:53:15.992Z,15.20
2018-07-12T13:55:43.726Z,14.90
2018-07-12T13:58:11.538Z,18.63
2018-07-12T14:00:39.252Z,13.80
2018-07-12T14:03:07.007Z,13.30
2018-07-12T14:05:34.716Z,14.43
2018-07-12T14:08:02.483Z,14.00
2018-07-12T14:10:30.220Z,13.43
2018-07-12T14:12:57.966Z,12.87
2018-07-12T14:15:25.549Z,15.17
2018-07-12T14:17:53.315Z,12.43
2018-07-12T14:20:21.033Z,16.07
2018-07-12T14:22:48.746Z,10.50
2018-07-12T14:25:16.490Z,10.27
2018-07-12T14:27:44.171Z,10.47
2018-07-12T14:30:11.872Z,11.93
2018-07-12T14:32:39.620Z,10.47
2018-07-12T14:35:07.315Z,11.13
2018-07-12T14:37:35.056Z,10.30
2018-07-12T14:40:02.865Z,9.13
2018-07-12T14:42:30.587Z,8.57
2018-07-12T14:44:58.364Z,8.77
2018-07-12T14:47:26.118Z,11.17
2018-07-12T14:49:53.907Z,12.30
2018-07-12T14:52:21.645Z,8.97
2018-07-12T14:54:49.343Z,8.87
2018-07-12T14:57:16.946Z,11.20
2018-07-12T14:59:44.666Z,9.23
2018-07-12T15:02:12.395Z,9.17
2018-07-12T15:04:40.125Z,7.50
2018-07-12T15:07:07.827Z,8.03
2018-07-12T15:09:35.565Z,9.70
2018-07-12T15:12:03.283Z,11.20
2018-07-12T15:14:31.118Z,9.73
2018-07-12T15:16:58.821Z,8.13
2018-07-12T15:19:26.622Z,8.13
2018-07-12T15:21:54.289Z,7.80
2018-07-12T15:24:21.974Z,6.93
2018-07-12T15:26:49.888Z,8.13
2018-07-12T15:29:17.593Z,8.50
2018-07-12T15:31:45.367Z,10.43
2018-07-12T15:34:13.133Z,8.60
2018-07-12T15:36:40.840Z,10.53
2018-07-12T15:39:08.921Z,6.87
2018-07-12T15:41:37.092Z,8.17
2018-07-12T15:44:04.824Z,6.73
2018-07-12T15:46:32.442Z,6.83
2018-07-12T15:49:00.168Z,7.17
2018-07-12T15:51:27.982Z,6.43
2018-07-12T15:53:55.751Z,6.13
2018-07-12T15:56:23.455Z,5.90
2018-07-12T15:58:51.085Z,5.43
2018-07-12T16:01:18.797Z,5.67
2018-07-12T16:03:46.531Z,5.40
2018-07-12T16:06:14.268Z,6.07
2018-07-12T16:08:42.226Z,7.27
2018-07-12T16:11:09.953Z,6.03
2018-07-12T16:13:37.721Z,10.60
2018-07-12T16:16:05.452Z,5.03
2018-07-12T16:18:33.203Z,5.93
2018-07-12T16:21:00.953Z,5.60
2018-07-12T16:23:28.642Z,8.83
2018-07-12T16:25:56.407Z,6.57
2018-07-12T16:28:24.055Z,19.53
2018-07-12T16:30:51.763Z,7.93
2018-07-12T16:33:19.467Z,7.43
2018-07-12T16:35:47.147Z,5.80
2018-07-12T16:38:14.908Z,5.57
2018-07-12T16:40:42.639Z,5.93
2018-07-12T16:43:10.344Z,4.53
2018-07-12T16:45:38.119Z,5.63
2018-07-12T16:48:05.706Z,5.57
2018-07-12T16:50:33.425Z,22.90
2018-07-12T16:53:01.176Z,5.20
2018-07-12T16:55:28.885Z,4.90
2018-07-12T16:57:56.446Z,6.97
2018-07-12T17:00:24.165Z,3.97
2018-07-12T17:02:51.879Z,6.57
2018-07-12T17:05:19.593Z,4.10
2018-07-12T17:07:47.347Z,6.43
2018-07-12T17:10:15.049Z,4.90
2018-07-12T17:12:43.031Z,4.73
2018-07-12T17:15:10.807Z,4.50
2018-07-12T17:17:38.767Z,6.60
2018-07-12T17:20:06.531Z,6.10
2018-07-12T17:22:34.173Z,4.90
2018-07-12T17:25:01.940Z,5.33
2018-07-12T17:27:30.504Z,6.00
2018-07-12T17:29:58.215Z,5.70
2018-07-12T17:32:25.930Z,4.20
2018-07-12T17:34:53.681Z,4.20
2018-07-12T17:37:21.482Z,4.47
2018-07-12T17:39:49.183Z,5.70
2018-07-12T17:42:16.983Z,4.90
2018-07-12T17:44:44.750Z,5.00
2018-07-12T17:47:12.441Z,5.63
2018-07-12T17:49:40.165Z,5.23
2018-07-12T17:52:07.955Z,5.17
2018-07-12T17:54:35.691Z,5.30
2018-07-12T17:57:03.433Z,10.67
2018-07-12T17:59:31.253Z,8.93
2018-07-12T18:01:59.012Z,5.10
2018-07-12T18:04:26.760Z,3.97
2018-07-12T18:06:54.543Z,5.57
2018-07-12T18:09:22.254Z,4.10
2018-07-12T18:11:50.077Z,2.90
2018-07-12T18:14:17.861Z,4.27
2018-07-12T18:16:45.516Z,7.87
2018-07-12T18:19:13.094Z,3.60
2018-07-12T18:21:40.698Z,4.43
2018-07-12T18:24:08.404Z,3.80
2018-07-12T18:26:36.011Z,4.10
2018-07-12T18:29:03.843Z,5.37
2018-07-12T18:31:31.554Z,4.73
2018-07-12T18:33:59.264Z,3.20
2018-07-12T18:36:26.931Z,4.60
2018-07-12T18:38:54.675Z,4.70
2018-07-12T18:41:22.439Z,3.40
2018-07-12T18:43:50.334Z,5.07
2018-07-12T18:46:18.032Z,3.03
2018-07-12T18:48:45.766Z,4.43
2018-07-12T18:51:13.503Z,6.20
2018-07-12T18:53:41.252Z,4.03
2018-07-12T18:56:08.951Z,5.40
2018-07-12T18:58:36.688Z,3.23
2018-07-12T19:01:04.440Z,2.57
2018-07-12T19:03:32.179Z,5.97
2018-07-12T19:05:59.940Z,4.10
2018-07-12T19:08:27.690Z,6.17
2018-07-12T19:10:55.405Z,5.20
2018-07-12T19:13:23.139Z,4.10
2018-07-12T19:15:50.859Z,3.63
2018-07-12T19:18:18.465Z,6.10
2018-07-12T19:20:46.262Z,5.10
2018-07-12T19:23:13.922Z,3.83
2018-07-12T19:25:41.624Z,4.20
2018-07-12T19:28:09.378Z,4.30
2018-07-12T19:30:36.981Z,4.87
2018-07-12T19:33:04.860Z,4.03
2018-07-12T19:35:32.575Z,5.47
2018-07-12T19:38:00.295Z,5.40
2018-07-12T19:40:27.990Z,4.67
2018-07-12T19:42:55.662Z,6.50
2018-07-12T19:45:23.398Z,6.33
2018-07-12T19:47:51.127Z,3.43
2018-07-12T19:50:18.891Z,3.67
2018-07-12T19:52:46.623Z,5.70
2018-07-12T19:55:14.323Z,4.80
2018-07-12T19:57:42.134Z,3.50
2018-07-12T20:00:09.861Z,4.60
2018-07-12T20:02:37.560Z,4.33
2018-07-12T20:05:05.191Z,3.60
2018-07-12T20:07:32.991Z,4.60
2018-07-12T20:10:00.586Z,4.70
2018-07-12T20:12:28.322Z,4.10
2018-07-12T20:14:55.914Z,4.70
2018-07-12T20:17:23.648Z,3.30
2018-07-12T20:19:51.491Z,4.03
2018-07-12T20:22:19.218Z,5.77
2018-07-12T20:24:46.985Z,4.60
2018-07-12T20:27:14.703Z,7.17
2018-07-12T20:29:42.411Z,4.77
2018-07-12T20:32:10.125Z,4.20
2018-07-12T20:34:37.770Z,5.10
2018-07-12T20:37:05.509Z,3.87
2018-07-12T20:39:33.235Z,4.97
2018-07-12T20:42:01.003Z,5.60
2018-07-12T20:44:29.071Z,6.50
2018-07-12T20:46:56.824Z,6.00
2018-07-12T20:49:24.434Z,4.33
2018-07-12T20:51:52.398Z,7.90
2018-07-12T20:54:20.163Z,3.90
2018-07-12T20:56:47.903Z,4.20
2018-07-12T20:59:15.624Z,4.30
2018-07-12T21:01:43.355Z,4.20
2018-07-12T21:04:11.164Z,4.93
2018-07-12T21:06:38.746Z,5.70
2018-07-12T21:09:08.652Z,5.83
2018-07-12T21:11:36.598Z,4.50
2018-07-12T21:14:04.652Z,3.50
2018-07-12T21:16:32.359Z,5.17
2018-07-12T21:19:00.960Z,9.07
2018-07-12T21:21:29.048Z,4.23
2018-07-12T21:23:57.004Z,4.00
2018-07-12T21:26:24.906Z,5.00
2018-07-12T21:28:52.722Z,7.00
2018-07-12T21:31:21.351Z,5.17
2018-07-12T21:33:49.067Z,3.97
2018-07-12T21:36:16.803Z,4.33
2018-07-12T21:38:44.812Z,3.50
2018-07-12T21:41:12.514Z,5.50
2018-07-12T21:43:40.242Z,3.90
2018-07-12T21:46:08.271Z,5.07
2018-07-12T21:48:36.004Z,4.20
2018-07-12T21:51:03.847Z,3.63
2018-07-12T21:53:31.570Z,4.43
2018-07-12T21:55:59.910Z,4.90
2018-07-12T21:58:27.607Z,5.37
2018-07-12T22:00:55.340Z,4.20
2018-07-12T22:03:23.164Z,3.50
2018-07-12T22:05:50.902Z,6.40
2018-07-12T22:08:22.891Z,4.67
2018-07-12T22:10:51.973Z,4.10
2018-07-12T22:13:20.795Z,5.27
2018-07-12T22:15:48.609Z,3.97
2018-07-12T22:18:16.340Z,4.07
2018-07-12T22:20:44.123Z,5.50
2018-07-12T22:23:11.904Z,4.50
2018-07-12T22:25:39.677Z,3.93
2018-07-12T22:28:07.570Z,6.33
2018-07-12T22:30:35.384Z,4.30
2018-07-12T22:33:03.676Z,5.23
2018-07-12T22:35:31.550Z,5.50
2018-07-12T22:38:00.392Z,5.87
2018-07-12T22:40:28.337Z,6.20
2018-07-12T22:42:56.226Z,5.93
2018-07-12T22:45:24.071Z,7.50
2018-07-12T22:47:51.645Z,5.73
2018-07-12T22:50:19.383Z,6.73
2018-07-12T22:52:46.994Z,5.00
2018-07-12T22:55:14.738Z,5.70
2018-07-12T22:57:42.446Z,7.60
2018-07-12T23:00:10.159Z,6.13
2018-07-12T23:02:38.239Z,5.63
2018-07-12T23:05:06.081Z,8.03
2018-07-12T23:07:33.682Z,6.00
2018-07-12T23:10:01.405Z,8.50
2018-07-12T23:12:29.177Z,6.07
2018-07-12T23:14:56.913Z,6.60
2018-07-12T23:17:24.680Z,8.50
2018-07-12T23:19:52.544Z,8.40
2018-07-12T23:22:20.739Z,7.00
2018-07-12T23:24:48.348Z,10.67
2018-07-12T23:27:16.180Z,6.80
2018-07-12T23:29:44.136Z,8.60
2018-07-12T23:32:11.896Z,7.00
2018-07-12T23:34:39.523Z,8.30
2018-07-12T23:37:07.223Z,8.57
2018-07-12T23:39:34.955Z,8.70
2018-07-12T23:42:02.711Z,8.73
2018-07-12T23:44:30.461Z,9.17
2018-07-12T23:46:58.159Z,18.63
2018-07-12T23:49:25.864Z,8.60
2018-07-12T23:51:53.607Z,9.97
2018-07-12T23:54:21.238Z,6.63
2018-07-12T23:56:49.119Z,9.70
2018-07-12T23:59:17.147Z,8.37
